Time;durP1;ratioP1;P1;durP2;ratioP2;P2;SDS_P1;SDS_P2;PMS_P1;PMS_P2;Temp;Humidity;BMP_temperature;BMP_pressure;BME280_temperature;BME280_humidity;BME280_pressure;Samples;Min_cycle;Max_cycle;Signal;HPM_P1;HPM_P2
2022/11/13 00:05:46;;;;;;;;;;;6.40;99.90;;;;;;12603923;28;19924;-38
2022/11/13 00:11:48;;;;;;;;;;;6.20;99.90;;;;;;12607989;28;19947;-38
2022/11/13 00:17:50;;;;;;;;;;;5.90;99.90;;;;;;12611150;28;20444;-38
2022/11/13 00:23:52;;;;;;;;;;;6.00;99.90;;;;;;12614203;28;20403;-38
2022/11/13 00:29:54;;;;;;;;;;;6.20;99.90;;;;;;12587684;28;19936;-37
2022/11/13 00:36:05;;;;;;;;;;;6.20;99.90;;;;;;12605438;28;19924;-37
2022/11/13 00:42:07;;;;;;;;;;;6.30;99.90;;;;;;12607216;28;19931;-37
2022/11/13 00:48:09;;;;;;;;;;;6.20;99.90;;;;;;12609788;28;19928;-37
2022/11/13 00:54:10;;;;;;;;;;;6.00;99.90;;;;;;12611484;28;20298;-37
2022/11/13 01:00:12;;;;;;;;;;;5.90;99.90;;;;;;12605088;28;20295;-37
2022/11/13 01:06:24;;;;;;;;;;;5.90;99.90;;;;;;12598739;28;19924;-37
2022/11/13 01:12:26;;;;;;;;;;;6.00;99.90;;;;;;12604103;28;19932;-38
2022/11/13 01:18:28;;;;;;;;;;;6.20;99.90;;;;;;12612988;28;19970;-37
2022/11/13 01:24:30;;;;;;;;;;;6.10;99.90;;;;;;12616655;28;19979;-38
2022/11/13 01:30:32;;;;;;;;;;;6.20;99.90;;;;;;12602079;28;19924;-37
2022/11/13 01:36:33;;;;;;;;;;;5.90;99.90;;;;;;12618500;28;19928;-38
2022/11/13 01:42:35;;;;;;;;;;;5.90;99.90;;;;;;12628887;28;19925;-37
2022/11/13 01:49:00;;;;;;;;;;;5.90;99.90;;;;;;12621826;28;20336;-37
2022/11/13 01:55:04;;;;;;;;;;;5.70;99.90;;;;;;12622243;28;19932;-37
2022/11/13 02:01:05;;;;;;;;;;;5.80;99.90;;;;;;12630006;28;19925;-37
2022/11/13 02:07:09;;;;;;;;;;;5.90;99.90;;;;;;12633085;28;19935;-37
2022/11/13 02:13:11;;;;;;;;;;;5.70;99.90;;;;;;12626759;28;19924;-38
2022/11/13 02:19:19;;;;;;;;;;;5.70;99.90;;;;;;12605010;28;20646;-37
2022/11/13 02:25:23;;;;;;;;;;;5.90;99.90;;;;;;12619548;28;19932;-37
2022/11/13 02:31:25;;;;;;;;;;;5.80;99.90;;;;;;12607340;28;20432;-37
2022/11/13 02:37:27;;;;;;;;;;;5.80;99.90;;;;;;12613645;28;19923;-37
2022/11/13 02:43:28;;;;;;;;;;;6.00;99.90;;;;;;12609876;28;19935;-38
2022/11/13 02:49:30;;;;;;;;;;;5.70;99.90;;;;;;12619085;28;19928;-37
2022/11/13 02:55:32;;;;;;;;;;;5.50;99.90;;;;;;12621534;28;20066;-37
2022/11/13 03:01:33;;;;;;;;;;;5.40;99.90;;;;;;12612651;28;19933;-37
2022/11/13 03:07:35;;;;;;;;;;;5.60;99.90;;;;;;12608837;28;19924;-37
2022/11/13 03:13:37;;;;;;;;;;;5.60;99.90;;;;;;12616163;28;19924;-37
2022/11/13 03:19:39;;;;;;;;;;;5.60;99.90;;;;;;12615367;28;20372;-39
2022/11/13 03:25:41;;;;;;;;;;;5.40;99.90;;;;;;12610742;28;19924;-37
2022/11/13 03:31:42;;;;;;;;;;;5.60;99.90;;;;;;12602803;28;19931;-37
2022/11/13 03:37:44;;;;;;;;;;;5.30;99.90;;;;;;12605262;28;19928;-38
2022/11/13 03:43:46;;;;;;;;;;;5.70;99.90;;;;;;12613612;28;20379;-37
2022/11/13 03:49:47;;;;;;;;;;;5.60;99.90;;;;;;12612231;28;19931;-37
2022/11/13 03:55:49;;;;;;;;;;;5.50;99.90;;;;;;12614352;28;19924;-37
2022/11/13 04:01:51;;;;;;;;;;;5.40;99.90;;;;;;12618764;28;19981;-38
2022/11/13 04:07:52;;;;;;;;;;;5.30;99.90;;;;;;12613100;28;20027;-38
2022/11/13 04:13:54;;;;;;;;;;;5.30;99.90;;;;;;12609448;28;19928;-37
2022/11/13 04:19:56;;;;;;;;;;;5.40;99.90;;;;;;12623768;28;19935;-37
2022/11/13 04:25:58;;;;;;;;;;;5.70;99.90;;;;;;12599479;28;19933;-37
2022/11/13 04:31:59;;;;;;;;;;;5.70;99.90;;;;;;12614666;28;19928;-37
2022/11/13 04:38:01;;;;;;;;;;;5.70;99.90;;;;;;12600485;28;19928;-37
2022/11/13 04:44:03;;;;;;;;;;;5.50;99.90;;;;;;12606811;28;20273;-37
2022/11/13 04:50:05;;;;;;;;;;;5.40;99.90;;;;;;12602689;28;19939;-38
2022/11/13 04:56:06;;;;;;;;;;;5.30;99.90;;;;;;12578219;28;19928;-37
2022/11/13 05:02:08;;;;;;;;;;;5.30;99.90;;;;;;12599220;28;19925;-37
2022/11/13 05:08:10;;;;;;;;;;;5.30;99.90;;;;;;12602567;28;19931;-37
2022/11/13 05:14:13;;;;;;;;;;;5.30;99.90;;;;;;12610535;28;20437;-37
2022/11/13 05:20:15;;;;;;;;;;;5.30;99.90;;;;;;12615264;28;19932;-37
2022/11/13 05:26:17;;;;;;;;;;;5.20;99.90;;;;;;12609924;28;20368;-37
2022/11/13 05:32:18;;;;;;;;;;;5.10;99.90;;;;;;12612192;28;19924;-37
2022/11/13 05:38:20;;;;;;;;;;;5.00;99.90;;;;;;12533164;28;19924;-37
2022/11/13 05:44:22;;;;;;;;;;;5.00;99.90;;;;;;12543149;28;19928;-37
2022/11/13 05:50:23;;;;;;;;;;;5.10;99.90;;;;;;12562283;28;20023;-37
2022/11/13 05:56:30;;;;;;;;;;;4.90;99.90;;;;;;12560947;28;19928;-37
2022/11/13 06:02:33;;;;;;;;;;;4.80;99.90;;;;;;12570772;28;19925;-40
2022/11/13 06:08:35;;;;;;;;;;;4.90;99.90;;;;;;12560985;28;19929;-39
2022/11/13 06:14:37;;;;;;;;;;;4.90;99.90;;;;;;12560697;28;20082;-39
2022/11/13 06:20:39;;;;;;;;;;;4.80;99.90;;;;;;12558295;28;20300;-39
2022/11/13 06:26:41;;;;;;;;;;;4.50;99.90;;;;;;12561300;28;19936;-39
2022/11/13 06:32:42;;;;;;;;;;;4.30;99.90;;;;;;12560544;28;19974;-39
2022/11/13 06:38:44;;;;;;;;;;;4.50;99.90;;;;;;12614857;28;20277;-39
2022/11/13 06:44:46;;;;;;;;;;;4.60;99.90;;;;;;12619517;28;20329;-38
2022/11/13 06:50:48;;;;;;;;;;;4.70;99.90;;;;;;12604100;28;19924;-39
2022/11/13 06:56:50;;;;;;;;;;;4.40;99.90;;;;;;12622981;28;19971;-38
2022/11/13 07:02:52;;;;;;;;;;;4.50;99.90;;;;;;12605212;28;20276;-39
2022/11/13 07:08:53;;;;;;;;;;;4.60;99.90;;;;;;12613599;28;19924;-39
2022/11/13 07:14:55;;;;;;;;;;;4.70;99.90;;;;;;12611551;28;19932;-39
2022/11/13 07:20:57;;;;;;;;;;;4.60;99.90;;;;;;12617150;28;19925;-38
2022/11/13 07:26:59;;;;;;;;;;;4.70;99.90;;;;;;12593268;28;20340;-39
2022/11/13 07:33:02;;;;;;;;;;;4.90;99.90;;;;;;12603733;28;19925;-39
2022/11/13 07:39:03;;;;;;;;;;;5.20;99.90;;;;;;12604548;28;19928;-38
2022/11/13 07:45:05;;;;;;;;;;;5.10;99.90;;;;;;12619772;28;19935;-39
2022/11/13 07:51:07;;;;;;;;;;;5.20;99.90;;;;;;12599466;28;19975;-39
2022/11/13 07:57:09;;;;;;;;;;;5.60;99.90;;;;;;12619301;28;20033;-39
2022/11/13 08:03:12;;;;;;;;;;;5.70;99.90;;;;;;12604343;28;19959;-39
2022/11/13 08:09:13;;;;;;;;;;;5.90;99.90;;;;;;12603709;28;19924;-39
2022/11/13 08:15:15;;;;;;;;;;;6.20;99.90;;;;;;12602457;28;19935;-39
2022/11/13 08:21:17;;;;;;;;;;;6.30;99.90;;;;;;12619328;28;19931;-39
2022/11/13 08:27:19;;;;;;;;;;;6.70;99.90;;;;;;12595718;28;19932;-39
2022/11/13 08:33:21;;;;;;;;;;;7.00;99.90;;;;;;12606016;28;20304;-39
2022/11/13 08:39:22;;;;;;;;;;;7.10;99.90;;;;;;12615328;28;20013;-40
2022/11/13 08:45:24;;;;;;;;;;;7.20;99.90;;;;;;12614567;28;20293;-39
2022/11/13 08:51:26;;;;;;;;;;;7.20;99.90;;;;;;12607213;28;19931;-40
2022/11/13 08:57:27;;;;;;;;;;;7.50;99.90;;;;;;12619826;28;19931;-39
2022/11/13 09:03:29;;;;;;;;;;;7.80;99.90;;;;;;12610077;28;19932;-39
2022/11/13 09:09:31;;;;;;;;;;;7.90;99.90;;;;;;12614772;28;19931;-39
2022/11/13 09:15:35;;;;;;;;;;;8.10;99.90;;;;;;12603245;28;19924;-40
2022/11/13 09:21:37;;;;;;;;;;;8.20;99.90;;;;;;12605589;28;19923;-40
2022/11/13 09:27:39;;;;;;;;;;;8.40;99.90;;;;;;12615711;28;19969;-40
2022/11/13 09:33:40;;;;;;;;;;;8.40;99.90;;;;;;12595915;28;20395;-39
2022/11/13 09:39:42;;;;;;;;;;;8.50;99.90;;;;;;12616182;28;19924;-39
2022/11/13 09:45:44;;;;;;;;;;;8.60;99.90;;;;;;12610970;28;19924;-39
2022/11/13 09:51:53;;;;;;;;;;;8.80;99.90;;;;;;12617460;28;19931;-40
2022/11/13 09:57:55;;;;;;;;;;;9.10;99.90;;;;;;12625663;28;19935;-39
2022/11/13 10:03:59;;;;;;;;;;;9.50;99.90;;;;;;12617888;28;19924;-39
2022/11/13 10:10:10;;;;;;;;;;;10.00;99.90;;;;;;12610870;28;19935;-39
2022/11/13 10:16:21;;;;;;;;;;;10.30;99.90;;;;;;12573221;28;19928;-40
2022/11/13 10:22:25;;;;;;;;;;;10.60;99.90;;;;;;12619463;28;19931;-40
2022/11/13 10:28:34;;;;;;;;;;;10.90;99.90;;;;;;12621040;28;19932;-40
2022/11/13 10:34:55;;;;;;;;;;;11.20;99.90;;;;;;12615905;28;20292;-40
2022/11/13 10:41:23;;;;;;;;;;;11.40;99.90;;;;;;12618184;28;20277;-39
2022/11/13 10:47:26;;;;;;;;;;;11.50;99.90;;;;;;12606261;28;19928;-39
2022/11/13 10:53:48;;;;;;;;;;;11.80;99.90;;;;;;12607349;28;19947;-40
2022/11/13 10:59:50;;;;;;;;;;;12.00;99.90;;;;;;12605091;28;20410;-40
2022/11/13 11:05:51;;;;;;;;;;;12.30;99.90;;;;;;12612768;28;19924;-40
2022/11/13 11:12:14;;;;;;;;;;;12.50;99.90;;;;;;12627417;28;19928;-40
2022/11/13 11:18:36;;;;;;;;;;;12.90;99.90;;;;;;12614291;28;19928;-40
2022/11/13 11:24:41;;;;;;;;;;;13.10;99.90;;;;;;12612343;28;19932;-39
2022/11/13 11:30:46;;;;;;;;;;;13.30;99.90;;;;;;12620588;28;20292;-40
2022/11/13 11:37:03;;;;;;;;;;;13.50;99.90;;;;;;12573090;28;20379;-40
2022/11/13 11:43:04;;;;;;;;;;;13.80;99.90;;;;;;12565823;28;19931;-40
2022/11/13 11:49:07;;;;;;;;;;;13.90;99.90;;;;;;12559135;28;19957;-40
2022/11/13 11:55:27;;;;;;;;;;;14.20;99.90;;;;;;12569746;28;19928;-39
2022/11/13 12:01:48;;;;;;;;;;;14.40;99.90;;;;;;12571371;28;19943;-39
2022/11/13 12:08:03;;;;;;;;;;;14.50;99.90;;;;;;12583222;28;19932;-39
2022/11/13 12:14:17;;;;;;;;;;;14.40;99.90;;;;;;12563224;28;19928;-40
2022/11/13 12:20:30;;;;;;;;;;;14.30;99.90;;;;;;12567549;28;19925;-41
2022/11/13 12:26:38;;;;;;;;;;;14.10;99.90;;;;;;12565619;28;19981;-39
2022/11/13 12:32:40;;;;;;;;;;;14.00;99.90;;;;;;12562318;28;19932;-40
2022/11/13 12:38:48;;;;;;;;;;;13.90;99.90;;;;;;12557434;28;19931;-39
2022/11/13 12:45:06;;;;;;;;;;;13.80;99.90;;;;;;12564715;28;19947;-39
2022/11/13 12:51:10;;;;;;;;;;;13.80;99.90;;;;;;12567484;28;19936;-40
2022/11/13 12:57:11;;;;;;;;;;;13.80;99.90;;;;;;12568840;28;19924;-39
2022/11/13 13:03:13;;;;;;;;;;;13.60;99.90;;;;;;12575941;28;19978;-40
2022/11/13 13:09:21;;;;;;;;;;;13.60;99.90;;;;;;12567908;28;19925;-40
2022/11/13 13:15:26;;;;;;;;;;;13.50;99.90;;;;;;12553930;28;20015;-39
2022/11/13 13:21:38;;;;;;;;;;;13.30;99.90;;;;;;12566095;28;20018;-39
2022/11/13 13:27:40;;;;;;;;;;;13.00;99.90;;;;;;12559824;28;20062;-39
2022/11/13 13:34:05;;;;;;;;;;;12.70;99.90;;;;;;12548580;28;19932;-39
2022/11/13 13:40:26;;;;;;;;;;;12.40;99.90;;;;;;12531115;28;19975;-39
2022/11/13 13:46:32;;;;;;;;;;;12.30;99.90;;;;;;12524211;28;19928;-39
2022/11/13 13:52:34;;;;;;;;;;;12.40;99.90;;;;;;12589071;28;19929;-39
2022/11/13 13:58:37;;;;;;;;;;;12.50;99.90;;;;;;12573150;28;19997;-40
2022/11/13 14:04:49;;;;;;;;;;;12.40;99.90;;;;;;12565329;28;19924;-39
2022/11/13 14:10:51;;;;;;;;;;;12.30;99.90;;;;;;12555482;28;19947;-39
2022/11/13 14:16:54;;;;;;;;;;;11.80;99.90;;;;;;12560132;28;20019;-39
2022/11/13 14:22:56;;;;;;;;;;;11.50;99.90;;;;;;12569838;28;20078;-39
2022/11/13 14:28:59;;;;;;;;;;;11.40;99.90;;;;;;12570281;28;19925;-39
2022/11/13 14:35:02;;;;;;;;;;;11.00;99.90;;;;;;12582636;28;19930;-39
2022/11/13 14:41:04;;;;;;;;;;;10.80;99.90;;;;;;12605074;28;19928;-39
2022/11/13 14:47:19;;;;;;;;;;;10.60;99.90;;;;;;12583731;28;19980;-39
2022/11/13 14:53:28;;;;;;;;;;;10.50;99.90;;;;;;12630917;28;19975;-39
2022/11/13 14:59:30;;;;;;;;;;;10.20;99.90;;;;;;12609684;28;19989;-39
2022/11/13 15:05:32;;;;;;;;;;;10.10;99.90;;;;;;12618177;28;20008;-39
2022/11/13 15:11:37;;;;;;;;;;;9.90;99.90;;;;;;12600414;28;19935;-39
2022/11/13 15:17:42;;;;;;;;;;;9.60;99.90;;;;;;12607442;28;19925;-39
2022/11/13 15:23:43;;;;;;;;;;;9.40;99.90;;;;;;12618432;28;20375;-39
2022/11/13 15:29:45;;;;;;;;;;;9.10;99.90;;;;;;12614813;28;19925;-39
2022/11/13 15:35:47;;;;;;;;;;;8.80;99.90;;;;;;12589466;28;20283;-39
2022/11/13 15:41:48;;;;;;;;;;;8.60;99.90;;;;;;12622343;28;19935;-39
2022/11/13 15:47:50;;;;;;;;;;;8.50;99.90;;;;;;12619314;28;19925;-40
2022/11/13 15:53:54;;;;;;;;;;;8.30;99.90;;;;;;12621419;28;19924;-40
2022/11/13 15:59:56;;;;;;;;;;;8.00;99.90;;;;;;12612586;28;19924;-39
2022/11/13 16:05:58;;;;;;;;;;;7.80;99.90;;;;;;12604798;28;19924;-39
2022/11/13 16:12:00;;;;;;;;;;;7.60;99.90;;;;;;12601895;28;20967;-39
2022/11/13 16:18:02;;;;;;;;;;;7.50;99.90;;;;;;12617775;28;19942;-39
2022/11/13 16:24:04;;;;;;;;;;;7.70;99.90;;;;;;12619902;28;19928;-40
2022/11/13 16:30:09;;;;;;;;;;;7.60;99.90;;;;;;12601634;28;20268;-39
2022/11/13 16:36:15;;;;;;;;;;;7.30;99.90;;;;;;12580421;28;19928;-39
2022/11/13 16:42:17;;;;;;;;;;;7.20;99.90;;;;;;12604803;28;19935;-39
2022/11/13 16:48:18;;;;;;;;;;;7.00;99.90;;;;;;12617719;28;20295;-38
2022/11/13 16:54:22;;;;;;;;;;;6.90;99.90;;;;;;12602973;28;20334;-39
2022/11/13 17:00:26;;;;;;;;;;;6.90;99.90;;;;;;12604563;28;19931;-39
2022/11/13 17:06:33;;;;;;;;;;;6.80;99.90;;;;;;12611492;28;19936;-39
2022/11/13 17:12:34;;;;;;;;;;;6.70;99.90;;;;;;12607332;28;19985;-39
2022/11/13 17:18:36;;;;;;;;;;;6.50;99.90;;;;;;12613976;28;19932;-39
2022/11/13 17:24:38;;;;;;;;;;;6.40;99.90;;;;;;12604021;28;19932;-39
2022/11/13 17:30:40;;;;;;;;;;;6.20;99.90;;;;;;12603625;28;19924;-39
2022/11/13 17:36:41;;;;;;;;;;;6.10;99.90;;;;;;12599381;28;19931;-39
2022/11/13 17:42:43;;;;;;;;;;;6.00;99.90;;;;;;12608700;28;19924;-39
2022/11/13 17:48:46;;;;;;;;;;;5.90;99.90;;;;;;12615483;28;19932;-39
2022/11/13 17:54:48;;;;;;;;;;;6.10;99.90;;;;;;12617548;28;19932;-39
2022/11/13 18:00:50;;;;;;;;;;;6.30;99.90;;;;;;12623550;28;20508;-39
2022/11/13 18:06:52;;;;;;;;;;;6.30;99.90;;;;;;12627218;28;19931;-39
2022/11/13 18:12:54;;;;;;;;;;;6.30;99.90;;;;;;12602374;28;20015;-39
2022/11/13 18:18:56;;;;;;;;;;;6.20;99.90;;;;;;12617450;28;19924;-39
2022/11/13 18:25:00;;;;;;;;;;;6.20;99.90;;;;;;12618406;28;19924;-39
2022/11/13 18:31:06;;;;;;;;;;;6.10;99.90;;;;;;12620282;28;19924;-39
2022/11/13 18:37:07;;;;;;;;;;;6.10;99.90;;;;;;12618487;28;19940;-40
2022/11/13 18:43:09;;;;;;;;;;;6.10;99.90;;;;;;12616427;28;21623;-38
2022/11/13 18:49:11;;;;;;;;;;;6.20;99.90;;;;;;12622926;28;19931;-39
2022/11/13 18:55:13;;;;;;;;;;;6.00;99.90;;;;;;12623615;28;19929;-39
2022/11/13 19:01:16;;;;;;;;;;;6.20;99.90;;;;;;12602782;28;19968;-39
2022/11/13 19:07:23;;;;;;;;;;;6.30;99.90;;;;;;12614980;28;20655;-39
2022/11/13 19:13:26;;;;;;;;;;;6.20;99.90;;;;;;12628194;28;19963;-39
2022/11/13 19:19:27;;;;;;;;;;;6.00;99.90;;;;;;12619314;28;19932;-38
2022/11/13 19:25:30;;;;;;;;;;;6.10;99.90;;;;;;12608689;28;19936;-39
2022/11/13 19:31:32;;;;;;;;;;;6.00;99.90;;;;;;12607295;28;19932;-39
2022/11/13 19:37:33;;;;;;;;;;;6.10;99.90;;;;;;12609478;28;20276;-39
2022/11/13 19:43:36;;;;;;;;;;;6.20;99.90;;;;;;12615221;28;20277;-39
2022/11/13 19:49:38;;;;;;;;;;;6.30;99.90;;;;;;12622743;28;19928;-39
2022/11/13 19:55:40;;;;;;;;;;;6.50;99.90;;;;;;12595368;28;20414;-39
2022/11/13 20:01:42;;;;;;;;;;;6.60;99.90;;;;;;12611321;28;19924;-39
2022/11/13 20:07:44;;;;;;;;;;;6.60;99.90;;;;;;12620798;28;20389;-38
2022/11/13 20:13:46;;;;;;;;;;;6.50;99.90;;;;;;12617375;28;19931;-39
2022/11/13 20:19:48;;;;;;;;;;;6.40;99.90;;;;;;12622263;28;20372;-39
2022/11/13 20:25:54;;;;;;;;;;;6.50;99.90;;;;;;12610624;28;19965;-39
2022/11/13 20:31:55;;;;;;;;;;;6.40;99.90;;;;;;12599897;28;20075;-39
2022/11/13 20:37:57;;;;;;;;;;;6.40;99.90;;;;;;12613369;28;19931;-39
2022/11/13 20:44:00;;;;;;;;;;;6.30;99.90;;;;;;12607535;28;19952;-39
2022/11/13 20:50:02;;;;;;;;;;;6.30;99.90;;;;;;12612718;28;19928;-39
2022/11/13 20:56:04;;;;;;;;;;;6.20;99.90;;;;;;12618179;28;19935;-39
2022/11/13 21:02:06;;;;;;;;;;;6.30;99.90;;;;;;12605417;28;19979;-38
2022/11/13 21:08:09;;;;;;;;;;;6.20;99.90;;;;;;12604313;28;20566;-40
2022/11/13 21:14:10;;;;;;;;;;;6.10;99.90;;;;;;12605404;28;19931;-38
2022/11/13 21:20:12;;;;;;;;;;;6.10;99.90;;;;;;12612216;28;19928;-39
2022/11/13 21:26:14;;;;;;;;;;;6.00;99.90;;;;;;12614260;28;19925;-39
2022/11/13 21:32:16;;;;;;;;;;;6.00;99.90;;;;;;12608075;28;20277;-39
2022/11/13 21:38:18;;;;;;;;;;;6.00;99.90;;;;;;12602423;28;19996;-39
2022/11/13 21:44:19;;;;;;;;;;;6.00;99.90;;;;;;12607079;28;19982;-39
2022/11/13 21:50:21;;;;;;;;;;;5.90;99.90;;;;;;12617275;28;19925;-39
2022/11/13 21:56:23;;;;;;;;;;;5.80;99.90;;;;;;12612622;28;19926;-39
2022/11/13 22:02:25;;;;;;;;;;;5.80;99.90;;;;;;12615890;28;20291;-39
2022/11/13 22:08:26;;;;;;;;;;;5.70;99.90;;;;;;12613773;28;20026;-39
2022/11/13 22:14:29;;;;;;;;;;;5.70;99.90;;;;;;12607192;28;20402;-39
2022/11/13 22:20:30;;;;;;;;;;;5.70;99.90;;;;;;12627207;28;19947;-39
2022/11/13 22:26:34;;;;;;;;;;;5.70;99.90;;;;;;12611268;28;19928;-39
2022/11/13 22:32:36;;;;;;;;;;;5.80;99.90;;;;;;12605057;28;19935;-39
2022/11/13 22:38:38;;;;;;;;;;;5.70;99.90;;;;;;12622231;28;19990;-39
2022/11/13 22:44:40;;;;;;;;;;;5.60;99.90;;;;;;12618397;28;19924;-39
2022/11/13 22:51:04;;;;;;;;;;;5.80;99.90;;;;;;12618574;28;20341;-38
2022/11/13 22:57:06;;;;;;;;;;;5.50;99.90;;;;;;12613634;28;19975;-39
2022/11/13 23:03:07;;;;;;;;;;;5.40;99.90;;;;;;12609804;28;19924;-38
2022/11/13 23:09:09;;;;;;;;;;;5.20;99.90;;;;;;12619400;28;19931;-39
2022/11/13 23:15:11;;;;;;;;;;;5.10;99.90;;;;;;12611833;28;19935;-38
2022/11/13 23:21:13;;;;;;;;;;;5.20;99.90;;;;;;12627823;28;19925;-38
2022/11/13 23:27:15;;;;;;;;;;;5.30;99.90;;;;;;12616578;28;19931;-39
2022/11/13 23:33:17;;;;;;;;;;;5.20;99.90;;;;;;12598469;28;19933;-39
2022/11/13 23:39:19;;;;;;;;;;;5.10;99.90;;;;;;12542491;28;19929;-39
2022/11/13 23:45:20;;;;;;;;;;;5.10;99.90;;;;;;12565681;28;19928;-39
2022/11/13 23:51:22;;;;;;;;;;;5.00;99.90;;;;;;12554227;28;19936;-39
2022/11/13 23:57:24;;;;;;;;;;;5.00;99.90;;;;;;12554566;28;20004;-38
